PWSweather.com
Personal Weather Stations
Station Observations
KJ4AJP
Beautiful Downtown Gardner, Martin, TN 38237

Beautiful Downtown GardnerMartin, TN 38237

Lat: 36.358, Lon: -88.8994

Elevation: 384.3

Station Type: TP1080WC

http://weather.mambm.com/

High Low Average
Temperature 62.6°F17.0°C 51.1°F10.6°C 58.0°F14.4°C
Dew Point 62.3°F16.8°C 50.8°F10.4°C 57.7°F14.3°C
Winds 9.2 mph 14.8 kmh 1.6 mph 2.6 kmh 4.0 mph S6.4 kmh S
Wind Gusts 16.8 mph27.0 kmh 4.5 mph7.2 kmh 10.0 mph16.1 kmh
Humidity 99% 99% 99%
Pressure 30.35 in1027.8 mb 30.03 in1016.9 mb -
Precipitation 0.17 in4.3 mm - -
Hour Temp Dew Point Humidity Winds Wind Gusts Pressure Precip Precip Rate Daily Precip Total
12:00 AM 51.3°F10.7°C 51.0°F10.6°C 99% 3.8 mph SSE6.1 kmh SSE 6.0 mph9.7 kmh 30.35 in1027.8 mb 0.00 in0.0 mm 0.00 in0.0 mm 0.00 in0.0 mm
12:15 AM 51.3°F10.7°C 51.0°F10.6°C 99% 2.2 mph S3.5 kmh S 6.0 mph9.7 kmh 30.35 in1027.8 mb 0.00 in0.0 mm 0.00 in0.0 mm 0.00 in0.0 mm
12:30 AM 51.1°F10.6°C 50.8°F10.4°C 99% 3.1 mph S5.0 kmh S 6.9 mph11.1 kmh 30.34 in1027.4 mb 0.00 in0.0 mm 0.00 in0.0 mm 0.00 in0.0 mm
12:45 AM 51.1°F10.6°C 50.8°F10.4°C 99% 3.1 mph SSE5.0 kmh SSE 6.0 mph9.7 kmh 30.34 in1027.4 mb 0.00 in0.0 mm 0.00 in0.0 mm 0.00 in0.0 mm
01:00 AM 51.1°F10.6°C 50.8°F10.4°C 99% 3.8 mph SSE6.1 kmh SSE 6.9 mph11.1 kmh 30.35 in1027.8 mb 0.01 in0.3 mm 0.01 in0.3 mm 0.01 in0.3 mm
01:15 AM 51.3°F10.7°C 51.0°F10.6°C 99% 3.1 mph S5.0 kmh S 6.0 mph9.7 kmh 30.34 in1027.4 mb 0.01 in0.3 mm 0.00 in0.0 mm 0.01 in0.3 mm
01:30 AM 51.3°F10.7°C 51.0°F10.6°C 99% 1.6 mph SSE2.6 kmh SSE 5.4 mph8.7 kmh 30.34 in1027.4 mb 0.01 in0.3 mm 0.00 in0.0 mm 0.01 in0.3 mm
01:45 AM 51.3°F10.7°C 51.0°F10.6°C 99% 1.6 mph SSE2.6 kmh SSE 4.5 mph7.2 kmh 30.33 in1027.1 mb 0.01 in0.3 mm 0.00 in0.0 mm 0.01 in0.3 mm
02:00 AM 51.3°F10.7°C 51.0°F10.6°C 99% 1.6 mph SSE2.6 kmh SSE 6.0 mph9.7 kmh 30.33 in1027.1 mb 0.00 in0.0 mm 0.00 in0.0 mm 0.01 in0.3 mm
02:15 AM 51.4°F10.8°C 51.2°F10.7°C 99% 3.1 mph SSE5.0 kmh SSE 6.9 mph11.1 kmh 30.32 in1026.8 mb 0.00 in0.0 mm 0.00 in0.0 mm 0.01 in0.3 mm
02:30 AM 51.4°F10.8°C 51.2°F10.7°C 99% 2.2 mph S3.5 kmh S 6.0 mph9.7 kmh 30.32 in1026.8 mb 0.00 in0.0 mm 0.00 in0.0 mm 0.01 in0.3 mm
02:45 AM 51.6°F10.9°C 51.4°F10.8°C 99% 2.2 mph S3.5 kmh S 10.7 mph17.2 kmh 30.32 in1026.8 mb 0.00 in0.0 mm 0.00 in0.0 mm 0.01 in0.3 mm
03:00 AM 51.8°F11.0°C 51.5°F10.8°C 99% 2.2 mph S3.5 kmh S 8.3 mph13.4 kmh 30.31 in1026.4 mb 0.00 in0.0 mm 0.00 in0.0 mm 0.01 in0.3 mm
03:15 AM 52.2°F11.2°C 51.9°F11.1°C 99% 3.1 mph S5.0 kmh S 6.9 mph11.1 kmh 30.30 in1026.1 mb 0.01 in0.3 mm 0.04 in1.0 mm 0.02 in0.5 mm
03:30 AM 52.2°F11.2°C 51.9°F11.1°C 99% 1.6 mph SSE2.6 kmh SSE 4.5 mph7.2 kmh 30.30 in1026.1 mb 0.01 in0.3 mm 0.00 in0.0 mm 0.02 in0.5 mm
03:45 AM 52.2°F11.2°C 51.9°F11.1°C 99% 3.1 mph S5.0 kmh S 6.9 mph11.1 kmh 30.29 in1025.7 mb 0.02 in0.5 mm 0.04 in1.0 mm 0.04 in1.0 mm
04:00 AM 52.3°F11.3°C 52.1°F11.2°C 99% 2.2 mph SSE3.5 kmh SSE 8.3 mph13.4 kmh 30.28 in1025.4 mb 0.02 in0.5 mm 0.00 in0.0 mm 0.04 in1.0 mm
04:15 AM 52.7°F11.5°C 52.4°F11.3°C 99% 1.6 mph S2.6 kmh S 9.2 mph14.8 kmh 30.28 in1025.4 mb 0.01 in0.3 mm 0.00 in0.0 mm 0.04 in1.0 mm
04:30 AM 53.1°F11.7°C 52.8°F11.6°C 99% 3.1 mph S5.0 kmh S 8.3 mph13.4 kmh 30.28 in1025.4 mb 0.01 in0.3 mm 0.00 in0.0 mm 0.04 in1.0 mm
04:45 AM 53.2°F11.8°C 53.0°F11.7°C 99% 4.5 mph S7.2 kmh S 7.6 mph12.2 kmh 30.28 in1025.4 mb 0.00 in0.0 mm 0.00 in0.0 mm 0.04 in1.0 mm
05:00 AM 53.4°F11.9°C 53.2°F11.8°C 99% 4.5 mph SSW7.2 kmh SSW 7.6 mph12.2 kmh 30.28 in1025.4 mb 0.00 in0.0 mm 0.00 in0.0 mm 0.04 in1.0 mm
05:15 AM 53.4°F11.9°C 53.2°F11.8°C 99% 3.8 mph S6.1 kmh S 7.6 mph12.2 kmh 30.27 in1025.1 mb 0.00 in0.0 mm 0.00 in0.0 mm 0.04 in1.0 mm
05:30 AM 54.0°F12.2°C 53.7°F12.1°C 99% 4.5 mph S7.2 kmh S 12.1 mph19.5 kmh 30.27 in1025.1 mb 0.00 in0.0 mm 0.00 in0.0 mm 0.04 in1.0 mm
05:43 AM 54.1°F12.3°C 53.9°F12.2°C 99% 4.5 mph S7.2 kmh S 9.8 mph15.8 kmh 30.27 in1025.1 mb 0.00 in0.0 mm 0.00 in0.0 mm 0.03 in0.8 mm
06:00 AM 54.3°F12.4°C 54.1°F12.3°C 99% 3.8 mph S6.1 kmh S 9.2 mph14.8 kmh 30.27 in1025.1 mb 0.00 in0.0 mm 0.00 in0.0 mm 0.03 in0.8 mm
06:15 AM 54.7°F12.6°C 54.4°F12.4°C 99% 5.4 mph S8.7 kmh S 9.8 mph15.8 kmh 30.27 in1025.1 mb 0.00 in0.0 mm 0.00 in0.0 mm 0.03 in0.8 mm
06:30 AM 54.9°F12.7°C 54.6°F12.6°C 99% 3.1 mph SSW5.0 kmh SSW 6.0 mph9.7 kmh 30.28 in1025.4 mb 0.00 in0.0 mm 0.00 in0.0 mm 0.03 in0.8 mm
06:45 AM 55.2°F12.9°C 55.0°F12.8°C 99% 1.6 mph S2.6 kmh S 5.4 mph8.7 kmh 30.27 in1025.1 mb 0.00 in0.0 mm 0.00 in0.0 mm 0.03 in0.8 mm
07:00 AM 55.4°F13.0°C 55.1°F12.8°C 99% 2.2 mph S3.5 kmh S 6.0 mph9.7 kmh 30.27 in1025.1 mb 0.00 in0.0 mm 0.00 in0.0 mm 0.03 in0.8 mm
07:15 AM 55.6°F13.1°C 55.3°F12.9°C 99% 1.6 mph S2.6 kmh S 6.9 mph11.1 kmh 30.27 in1025.1 mb 0.00 in0.0 mm 0.00 in0.0 mm 0.03 in0.8 mm
07:30 AM 55.8°F13.2°C 55.5°F13.1°C 99% 3.1 mph S5.0 kmh S 7.6 mph12.2 kmh 30.27 in1025.1 mb 0.00 in0.0 mm 0.00 in0.0 mm 0.03 in0.8 mm
07:45 AM 56.3°F13.5°C 56.0°F13.3°C 99% 1.6 mph S2.6 kmh S 11.4 mph18.3 kmh 30.26 in1024.7 mb 0.00 in0.0 mm 0.00 in0.0 mm 0.03 in0.8 mm
08:00 AM 56.7°F13.7°C 56.4°F13.6°C 99% 2.2 mph SSE3.5 kmh SSE 9.8 mph15.8 kmh 30.27 in1025.1 mb 0.00 in0.0 mm 0.00 in0.0 mm 0.03 in0.8 mm
08:15 AM 57.0°F13.9°C 56.8°F13.8°C 99% 3.8 mph SSE6.1 kmh SSE 8.3 mph13.4 kmh 30.27 in1025.1 mb 0.00 in0.0 mm 0.00 in0.0 mm 0.03 in0.8 mm
08:30 AM 57.2°F14.0°C 56.9°F13.8°C 99% 4.5 mph S7.2 kmh S 11.4 mph18.3 kmh 30.27 in1025.1 mb 0.00 in0.0 mm 0.00 in0.0 mm 0.03 in0.8 mm
08:45 AM 57.6°F14.2°C 57.3°F14.1°C 99% 3.8 mph S6.1 kmh S 11.4 mph18.3 kmh 30.26 in1024.7 mb 0.00 in0.0 mm 0.00 in0.0 mm 0.03 in0.8 mm
09:00 AM 57.9°F14.4°C 57.7°F14.3°C 99% 4.5 mph S7.2 kmh S 11.4 mph18.3 kmh 30.25 in1024.4 mb 0.00 in0.0 mm 0.00 in0.0 mm 0.03 in0.8 mm
09:15 AM 58.5°F14.7°C 58.2°F14.6°C 99% 3.8 mph S6.1 kmh S 10.7 mph17.2 kmh 30.26 in1024.7 mb 0.00 in0.0 mm 0.00 in0.0 mm 0.03 in0.8 mm
09:30 AM 58.8°F14.9°C 58.6°F14.8°C 99% 6.9 mph S11.1 kmh S 12.1 mph19.5 kmh 30.25 in1024.4 mb 0.00 in0.0 mm 0.00 in0.0 mm 0.03 in0.8 mm
09:45 AM 59.4°F15.2°C 59.1°F15.1°C 99% 6.9 mph S11.1 kmh S 11.4 mph18.3 kmh 30.25 in1024.4 mb 0.00 in0.0 mm 0.00 in0.0 mm 0.03 in0.8 mm
10:00 AM 59.7°F15.4°C 59.5°F15.3°C 99% 5.4 mph S8.7 kmh S 13.0 mph20.9 kmh 30.25 in1024.4 mb 0.00 in0.0 mm 0.00 in0.0 mm 0.03 in0.8 mm
10:15 AM 60.1°F15.6°C 59.8°F15.4°C 99% 5.4 mph S8.7 kmh S 11.4 mph18.3 kmh 30.24 in1024.0 mb 0.00 in0.0 mm 0.00 in0.0 mm 0.03 in0.8 mm
10:30 AM 60.3°F15.7°C 60.0°F15.6°C 99% 3.8 mph S6.1 kmh S 9.8 mph15.8 kmh 30.24 in1024.0 mb 0.00 in0.0 mm 0.00 in0.0 mm 0.03 in0.8 mm
10:45 AM 60.3°F15.7°C 60.0°F15.6°C 99% 3.1 mph S5.0 kmh S 9.8 mph15.8 kmh 30.23 in1023.7 mb 0.02 in0.5 mm 0.08 in2.0 mm 0.06 in1.5 mm
11:00 AM 60.3°F15.7°C 60.0°F15.6°C 99% 5.4 mph S8.7 kmh S 10.7 mph17.2 kmh 30.22 in1023.4 mb 0.04 in1.0 mm 0.03 in0.8 mm 0.07 in1.8 mm
11:15 AM 60.4°F15.8°C 60.2°F15.7°C 99% 6.0 mph S9.7 kmh S 12.1 mph19.5 kmh 30.21 in1023.0 mb 0.04 in1.0 mm 0.00 in0.0 mm 0.07 in1.8 mm
11:30 AM 60.6°F15.9°C 60.4°F15.8°C 99% 4.5 mph S7.2 kmh S 11.4 mph18.3 kmh 30.21 in1023.0 mb 0.04 in1.0 mm 0.00 in0.0 mm 0.07 in1.8 mm
11:45 AM 60.6°F15.9°C 60.4°F15.8°C 99% 2.2 mph SSW3.5 kmh SSW 12.1 mph19.5 kmh 30.20 in1022.7 mb 0.01 in0.3 mm 0.00 in0.0 mm 0.07 in1.8 mm
12:00 PM 60.6°F15.9°C 60.4°F15.8°C 99% 4.5 mph SW7.2 kmh SW 10.7 mph17.2 kmh 30.20 in1022.7 mb 0.02 in0.5 mm 0.01 in0.3 mm 0.09 in2.3 mm
12:15 PM 60.8°F16.0°C 60.5°F15.8°C 99% 6.9 mph S11.1 kmh S 10.7 mph17.2 kmh 30.19 in1022.4 mb 0.04 in1.0 mm 0.08 in2.0 mm 0.10 in2.5 mm
12:30 PM 60.8°F16.0°C 60.5°F15.8°C 99% 3.8 mph SW6.1 kmh SW 11.4 mph18.3 kmh 30.18 in1022.0 mb 0.05 in1.3 mm 0.04 in1.0 mm 0.12 in3.0 mm
12:45 PM 61.0°F16.1°C 60.7°F15.9°C 99% 2.2 mph SW3.5 kmh SW 9.8 mph15.8 kmh 30.17 in1021.7 mb 0.05 in1.3 mm 0.00 in0.0 mm 0.12 in3.0 mm
01:00 PM 61.0°F16.1°C 60.7°F15.9°C 99% 5.4 mph SSW8.7 kmh SSW 11.4 mph18.3 kmh 30.17 in1021.7 mb 0.02 in0.5 mm 0.00 in0.0 mm 0.12 in3.0 mm
01:15 PM 60.8°F16.0°C 60.5°F15.8°C 99% 5.4 mph S8.7 kmh S 12.1 mph19.5 kmh 30.15 in1021.0 mb 0.01 in0.3 mm 0.00 in0.0 mm 0.12 in3.0 mm
01:30 PM 61.0°F16.1°C 60.7°F15.9°C 99% 5.4 mph S8.7 kmh S 10.7 mph17.2 kmh 30.14 in1020.7 mb 0.00 in0.0 mm 0.00 in0.0 mm 0.12 in3.0 mm
01:45 PM 61.0°F16.1°C 60.7°F15.9°C 99% 6.9 mph S11.1 kmh S 13.6 mph21.9 kmh 30.14 in1020.7 mb 0.01 in0.3 mm 0.04 in1.0 mm 0.13 in3.3 mm
02:00 PM 61.2°F16.2°C 60.9°F16.1°C 99% 4.5 mph S7.2 kmh S 12.1 mph19.5 kmh 30.13 in1020.3 mb 0.01 in0.3 mm 0.00 in0.0 mm 0.13 in3.3 mm
02:15 PM 61.2°F16.2°C 60.9°F16.1°C 99% 3.8 mph S6.1 kmh S 16.8 mph27.0 kmh 30.12 in1020.0 mb 0.01 in0.3 mm 0.00 in0.0 mm 0.13 in3.3 mm
02:30 PM 61.0°F16.1°C 60.7°F15.9°C 99% 4.5 mph SSW7.2 kmh SSW 12.1 mph19.5 kmh 30.12 in1020.0 mb 0.00 in0.0 mm 0.00 in0.0 mm 0.13 in3.3 mm
02:45 PM 61.0°F16.1°C 60.7°F15.9°C 99% 3.1 mph S5.0 kmh S 10.7 mph17.2 kmh 30.12 in1020.0 mb 0.00 in0.0 mm 0.00 in0.0 mm 0.13 in3.3 mm
03:00 PM 60.8°F16.0°C 60.5°F15.8°C 99% 5.4 mph S8.7 kmh S 11.4 mph18.3 kmh 30.11 in1019.6 mb 0.01 in0.3 mm 0.01 in0.3 mm 0.14 in3.6 mm
03:15 PM 60.8°F16.0°C 60.5°F15.8°C 99% 3.8 mph SW6.1 kmh SW 9.2 mph14.8 kmh 30.11 in1019.6 mb 0.01 in0.3 mm 0.00 in0.0 mm 0.14 in3.6 mm
03:30 PM 61.0°F16.1°C 60.7°F15.9°C 99% 6.0 mph S9.7 kmh S 12.1 mph19.5 kmh 30.10 in1019.3 mb 0.01 in0.3 mm 0.00 in0.0 mm 0.14 in3.6 mm
03:45 PM 60.8°F16.0°C 60.5°F15.8°C 99% 2.2 mph SW3.5 kmh SW 14.5 mph23.3 kmh 30.11 in1019.6 mb 0.01 in0.3 mm 0.00 in0.0 mm 0.14 in3.6 mm
04:00 PM 60.6°F15.9°C 60.4°F15.8°C 99% 9.2 mph S14.8 kmh S 14.5 mph23.3 kmh 30.09 in1019.0 mb 0.00 in0.0 mm 0.00 in0.0 mm 0.14 in3.6 mm
04:15 PM 60.6°F15.9°C 60.4°F15.8°C 99% 6.0 mph S9.7 kmh S 14.5 mph23.3 kmh 30.10 in1019.3 mb 0.00 in0.0 mm 0.00 in0.0 mm 0.14 in3.6 mm
04:30 PM 60.6°F15.9°C 60.4°F15.8°C 99% 2.2 mph S3.5 kmh S 11.4 mph18.3 kmh 30.09 in1019.0 mb 0.00 in0.0 mm 0.00 in0.0 mm 0.14 in3.6 mm
04:45 PM 60.6°F15.9°C 60.4°F15.8°C 99% 3.8 mph S6.1 kmh S 13.0 mph20.9 kmh 30.09 in1019.0 mb 0.00 in0.0 mm 0.00 in0.0 mm 0.14 in3.6 mm
05:00 PM 60.4°F15.8°C 60.2°F15.7°C 99% 6.0 mph SSW9.7 kmh SSW 13.0 mph20.9 kmh 30.09 in1019.0 mb 0.00 in0.0 mm 0.00 in0.0 mm 0.14 in3.6 mm
05:15 PM 60.4°F15.8°C 60.2°F15.7°C 99% 7.6 mph S12.2 kmh S 13.0 mph20.9 kmh 30.08 in1018.6 mb 0.00 in0.0 mm 0.00 in0.0 mm 0.14 in3.6 mm
05:30 PM 60.4°F15.8°C 60.2°F15.7°C 99% 4.5 mph S7.2 kmh S 13.0 mph20.9 kmh 30.08 in1018.6 mb 0.00 in0.0 mm 0.00 in0.0 mm 0.14 in3.6 mm
05:45 PM 60.4°F15.8°C 60.2°F15.7°C 99% 6.9 mph S11.1 kmh S 14.5 mph23.3 kmh 30.07 in1018.3 mb 0.00 in0.0 mm 0.00 in0.0 mm 0.14 in3.6 mm
06:00 PM 60.4°F15.8°C 60.2°F15.7°C 99% 4.5 mph S7.2 kmh S 13.0 mph20.9 kmh 30.07 in1018.3 mb 0.00 in0.0 mm 0.00 in0.0 mm 0.14 in3.6 mm
06:15 PM 60.4°F15.8°C 60.2°F15.7°C 99% 3.8 mph SSW6.1 kmh SSW 9.2 mph14.8 kmh 30.08 in1018.6 mb 0.00 in0.0 mm 0.00 in0.0 mm 0.14 in3.6 mm
06:30 PM 60.6°F15.9°C 60.4°F15.8°C 99% 3.1 mph SSW5.0 kmh SSW 8.3 mph13.4 kmh 30.08 in1018.6 mb 0.01 in0.3 mm 0.04 in1.0 mm 0.15 in3.8 mm
06:45 PM 60.6°F15.9°C 60.4°F15.8°C 99% 2.2 mph SSW3.5 kmh SSW 13.6 mph21.9 kmh 30.08 in1018.6 mb 0.01 in0.3 mm 0.00 in0.0 mm 0.15 in3.8 mm
07:00 PM 60.6°F15.9°C 60.4°F15.8°C 99% 6.9 mph S11.1 kmh S 13.0 mph20.9 kmh 30.08 in1018.6 mb 0.01 in0.3 mm 0.00 in0.0 mm 0.15 in3.8 mm
07:15 PM 60.8°F16.0°C 60.5°F15.8°C 99% 2.2 mph S3.5 kmh S 13.0 mph20.9 kmh 30.08 in1018.6 mb 0.01 in0.3 mm 0.00 in0.0 mm 0.15 in3.8 mm
07:30 PM 60.8°F16.0°C 60.5°F15.8°C 99% 3.8 mph S6.1 kmh S 9.2 mph14.8 kmh 30.08 in1018.6 mb 0.00 in0.0 mm 0.00 in0.0 mm 0.15 in3.8 mm
07:45 PM 60.8°F16.0°C 60.5°F15.8°C 99% 8.3 mph SW13.4 kmh SW 13.6 mph21.9 kmh 30.09 in1019.0 mb 0.00 in0.0 mm 0.00 in0.0 mm 0.15 in3.8 mm
08:00 PM 61.0°F16.1°C 60.7°F15.9°C 99% 2.2 mph SSW3.5 kmh SSW 12.1 mph19.5 kmh 30.09 in1019.0 mb 0.00 in0.0 mm 0.00 in0.0 mm 0.15 in3.8 mm
08:15 PM 61.0°F16.1°C 60.7°F15.9°C 99% 5.4 mph SSW8.7 kmh SSW 9.8 mph15.8 kmh 30.08 in1018.6 mb 0.00 in0.0 mm 0.00 in0.0 mm 0.15 in3.8 mm
08:30 PM 61.2°F16.2°C 60.9°F16.1°C 99% 4.5 mph SSW7.2 kmh SSW 10.7 mph17.2 kmh 30.08 in1018.6 mb 0.00 in0.0 mm 0.00 in0.0 mm 0.15 in3.8 mm
08:45 PM 61.2°F16.2°C 60.9°F16.1°C 99% 5.4 mph S8.7 kmh S 14.5 mph23.3 kmh 30.08 in1018.6 mb 0.00 in0.0 mm 0.00 in0.0 mm 0.15 in3.8 mm
09:00 PM 61.2°F16.2°C 60.9°F16.1°C 99% 7.6 mph S12.2 kmh S 12.1 mph19.5 kmh 30.07 in1018.3 mb 0.00 in0.0 mm 0.00 in0.0 mm 0.15 in3.8 mm
09:15 PM 61.3°F16.3°C 61.1°F16.2°C 99% 3.8 mph SW6.1 kmh SW 12.1 mph19.5 kmh 30.08 in1018.6 mb 0.00 in0.0 mm 0.00 in0.0 mm 0.15 in3.8 mm
09:30 PM 61.3°F16.3°C 61.1°F16.2°C 99% 4.5 mph S7.2 kmh S 9.2 mph14.8 kmh 30.06 in1017.9 mb 0.00 in0.0 mm 0.00 in0.0 mm 0.15 in3.8 mm
09:45 PM 61.3°F16.3°C 61.1°F16.2°C 99% 2.2 mph S3.5 kmh S 8.3 mph13.4 kmh 30.06 in1017.9 mb 0.00 in0.0 mm 0.00 in0.0 mm 0.15 in3.8 mm
10:00 PM 61.5°F16.4°C 61.3°F16.3°C 99% 3.1 mph SSW5.0 kmh SSW 9.2 mph14.8 kmh 30.06 in1017.9 mb 0.00 in0.0 mm 0.00 in0.0 mm 0.15 in3.8 mm
10:15 PM 61.7°F16.5°C 61.4°F16.3°C 99% 3.1 mph SSW5.0 kmh SSW 7.6 mph12.2 kmh 30.06 in1017.9 mb 0.01 in0.3 mm 0.04 in1.0 mm 0.16 in4.1 mm
10:30 PM 61.7°F16.5°C 61.4°F16.3°C 99% 3.1 mph SSW5.0 kmh SSW 10.7 mph17.2 kmh 30.06 in1017.9 mb 0.01 in0.3 mm 0.00 in0.0 mm 0.16 in4.1 mm
10:45 PM 61.9°F16.6°C 61.6°F16.4°C 99% 3.8 mph S6.1 kmh S 12.1 mph19.5 kmh 30.05 in1017.6 mb 0.01 in0.3 mm 0.00 in0.0 mm 0.16 in4.1 mm
11:00 PM 62.2°F16.8°C 62.0°F16.7°C 99% 2.2 mph SSW3.5 kmh SSW 9.2 mph14.8 kmh 30.05 in1017.6 mb 0.01 in0.3 mm 0.00 in0.0 mm 0.16 in4.1 mm
11:15 PM 62.4°F16.9°C 62.2°F16.8°C 99% 5.4 mph S8.7 kmh S 9.8 mph15.8 kmh 30.04 in1017.3 mb 0.01 in0.3 mm 0.00 in0.0 mm 0.17 in4.3 mm
11:30 PM 62.6°F17.0°C 62.3°F16.8°C 99% 3.1 mph SSW5.0 kmh SSW 9.2 mph14.8 kmh 30.04 in1017.3 mb 0.01 in0.3 mm 0.00 in0.0 mm 0.17 in4.3 mm
11:45 PM 62.6°F17.0°C 62.3°F16.8°C 99% 4.5 mph SSW7.2 kmh SSW 9.8 mph15.8 kmh 30.03 in1016.9 mb 0.01 in0.3 mm 0.00 in0.0 mm 0.17 in4.3 mm